Henderson Harbor, New York
Current Conditions -  °F | °C
As of 3:56 PM on Tuesday 27 Jan 2015 (Local Time) from KART Reporting Station
Clear Clear  
Wind Chill: -1°   Ceiling: Unl
Heat Index: 15°   Visibility: 10mi
Dew Point: -2°   Wind: 16mph
Humidity: 47%   Direction: 20°NNE
Pressure: 30.02"   Gusts: NA
Location:  43.86°N, 76.2°W
Report Text: KART 272056Z AUTO 02014KT 10SM CLR M09/M19 A3002 RMK AO2 SLP177 T10941189 53012
Loading
Personal Weather Stations






























Interactive Weather Map New forecast layout! Learn more

10-Day Weather Forecast

Advertisements
Track Severe Weather on mobile